sensor_id;sensor_type;location;lat;lon;timestamp;P1;durP1;ratioP1;P2;durP2;ratioP2
73296;SDS011;61524;50.938;11.396;2022-12-07T00:01:58;8.80;;;4.25;;
73296;SDS011;61524;50.938;11.396;2022-12-07T00:04:23;7.15;;;3.35;;
73296;SDS011;61524;50.938;11.396;2022-12-07T00:06:51;8.02;;;3.72;;
73296;SDS011;61524;50.938;11.396;2022-12-07T00:09:18;7.55;;;4.13;;
73296;SDS011;61524;50.938;11.396;2022-12-07T00:11:44;6.90;;;3.92;;
73296;SDS011;61524;50.938;11.396;2022-12-07T00:14:14;7.30;;;4.38;;
73296;SDS011;61524;50.938;11.396;2022-12-07T00:16:41;7.72;;;4.05;;
73296;SDS011;61524;50.938;11.396;2022-12-07T00:19:09;9.25;;;4.78;;
73296;SDS011;61524;50.938;11.396;2022-12-07T00:21:36;9.07;;;4.30;;
73296;SDS011;61524;50.938;11.396;2022-12-07T00:24:02;8.18;;;4.38;;
73296;SDS011;61524;50.938;11.396;2022-12-07T00:26:30;9.55;;;4.15;;
73296;SDS011;61524;50.938;11.396;2022-12-07T00:29:00;9.38;;;4.57;;
73296;SDS011;61524;50.938;11.396;2022-12-07T00:31:28;10.05;;;5.05;;
73296;SDS011;61524;50.938;11.396;2022-12-07T00:34:03;9.00;;;4.38;;
73296;SDS011;61524;50.938;11.396;2022-12-07T00:36:29;8.43;;;4.53;;
73296;SDS011;61524;50.938;11.396;2022-12-07T00:38:55;7.65;;;4.32;;
73296;SDS011;61524;50.938;11.396;2022-12-07T00:41:23;8.32;;;3.65;;
73296;SDS011;61524;50.938;11.396;2022-12-07T00:43:50;7.95;;;4.00;;
73296;SDS011;61524;50.938;11.396;2022-12-07T00:46:16;8.32;;;4.28;;
73296;SDS011;61524;50.938;11.396;2022-12-07T00:48:42;7.75;;;3.88;;
73296;SDS011;61524;50.938;11.396;2022-12-07T00:51:09;8.35;;;3.30;;
73296;SDS011;61524;50.938;11.396;2022-12-07T00:53:37;8.52;;;4.35;;
73296;SDS011;61524;50.938;11.396;2022-12-07T00:56:07;8.20;;;4.18;;
73296;SDS011;61524;50.938;11.396;2022-12-07T00:58:34;8.75;;;3.85;;
73296;SDS011;61524;50.938;11.396;2022-12-07T01:01:03;9.68;;;4.88;;
73296;SDS011;61524;50.938;11.396;2022-12-07T01:03:29;6.97;;;3.92;;
73296;SDS011;61524;50.938;11.396;2022-12-07T01:05:56;8.93;;;3.80;;
73296;SDS011;61524;50.938;11.396;2022-12-07T01:08:22;6.80;;;3.28;;
73296;SDS011;61524;50.938;11.396;2022-12-07T01:10:49;5.88;;;3.33;;
73296;SDS011;61524;50.938;11.396;2022-12-07T01:13:22;5.63;;;2.95;;
73296;SDS011;61524;50.938;11.396;2022-12-07T01:15:47;8.55;;;4.20;;
73296;SDS011;61524;50.938;11.396;2022-12-07T01:18:13;6.55;;;3.42;;
73296;SDS011;61524;50.938;11.396;2022-12-07T01:20:38;8.05;;;3.33;;
73296;SDS011;61524;50.938;11.396;2022-12-07T01:23:04;7.72;;;3.15;;
73296;SDS011;61524;50.938;11.396;2022-12-07T01:25:29;6.10;;;3.58;;
73296;SDS011;61524;50.938;11.396;2022-12-07T01:27:55;6.85;;;4.05;;
73296;SDS011;61524;50.938;11.396;2022-12-07T01:30:20;6.45;;;3.88;;
73296;SDS011;61524;50.938;11.396;2022-12-07T01:32:46;6.55;;;3.47;;
73296;SDS011;61524;50.938;11.396;2022-12-07T01:35:11;6.30;;;3.75;;
73296;SDS011;61524;50.938;11.396;2022-12-07T01:37:37;6.63;;;3.72;;
73296;SDS011;61524;50.938;11.396;2022-12-07T01:40:04;9.27;;;4.00;;
73296;SDS011;61524;50.938;11.396;2022-12-07T01:42:32;7.55;;;4.00;;
73296;SDS011;61524;50.938;11.396;2022-12-07T01:47:42;8.27;;;3.35;;
73296;SDS011;61524;50.938;11.396;2022-12-07T01:50:11;7.35;;;3.90;;
73296;SDS011;61524;50.938;11.396;2022-12-07T01:52:38;8.55;;;4.25;;
73296;SDS011;61524;50.938;11.396;2022-12-07T01:55:06;7.05;;;4.00;;
73296;SDS011;61524;50.938;11.396;2022-12-07T01:57:36;7.15;;;3.13;;
73296;SDS011;61524;50.938;11.396;2022-12-07T02:00:06;4.45;;;2.50;;
73296;SDS011;61524;50.938;11.396;2022-12-07T02:02:33;8.10;;;3.47;;
73296;SDS011;61524;50.938;11.396;2022-12-07T02:05:03;8.50;;;3.70;;
73296;SDS011;61524;50.938;11.396;2022-12-07T02:07:30;7.57;;;3.35;;
73296;SDS011;61524;50.938;11.396;2022-12-07T02:09:57;6.95;;;3.80;;
73296;SDS011;61524;50.938;11.396;2022-12-07T02:12:36;6.07;;;2.92;;
73296;SDS011;61524;50.938;11.396;2022-12-07T02:15:01;6.28;;;2.65;;
73296;SDS011;61524;50.938;11.396;2022-12-07T02:20:21;6.22;;;3.17;;
73296;SDS011;61524;50.938;11.396;2022-12-07T02:31:11;5.18;;;2.83;;
73296;SDS011;61524;50.938;11.396;2022-12-07T02:33:44;5.50;;;2.90;;
73296;SDS011;61524;50.938;11.396;2022-12-07T02:36:22;5.22;;;2.75;;
73296;SDS011;61524;50.938;11.396;2022-12-07T02:41:33;6.57;;;2.53;;
73296;SDS011;61524;50.938;11.396;2022-12-07T02:44:10;4.68;;;2.40;;
73296;SDS011;61524;50.938;11.396;2022-12-07T02:46:47;5.20;;;3.15;;
73296;SDS011;61524;50.938;11.396;2022-12-07T02:49:18;6.60;;;2.85;;
73296;SDS011;61524;50.938;11.396;2022-12-07T02:51:44;5.65;;;2.83;;
73296;SDS011;61524;50.938;11.396;2022-12-07T02:54:12;4.35;;;2.85;;
73296;SDS011;61524;50.938;11.396;2022-12-07T03:18:44;6.38;;;3.13;;
73296;SDS011;61524;50.938;11.396;2022-12-07T03:21:21;6.15;;;2.53;;
73296;SDS011;61524;50.938;11.396;2022-12-07T03:23:53;5.45;;;2.95;;
73296;SDS011;61524;50.938;11.396;2022-12-07T03:26:21;5.85;;;3.08;;
73296;SDS011;61524;50.938;11.396;2022-12-07T03:28:54;6.82;;;3.00;;
73296;SDS011;61524;50.938;11.396;2022-12-07T03:31:25;7.90;;;3.33;;
73296;SDS011;61524;50.938;11.396;2022-12-07T03:34:06;6.95;;;3.65;;
73296;SDS011;61524;50.938;11.396;2022-12-07T03:36:49;5.82;;;3.45;;
73296;SDS011;61524;50.938;11.396;2022-12-07T03:42:07;6.45;;;3.50;;
73296;SDS011;61524;50.938;11.396;2022-12-07T03:44:34;7.25;;;3.17;;
73296;SDS011;61524;50.938;11.396;2022-12-07T03:47:01;8.00;;;3.83;;
73296;SDS011;61524;50.938;11.396;2022-12-07T03:49:51;7.20;;;3.72;;
73296;SDS011;61524;50.938;11.396;2022-12-07T03:52:26;6.72;;;3.25;;
73296;SDS011;61524;50.938;11.396;2022-12-07T03:57:51;18.15;;;6.45;;
73296;SDS011;61524;50.938;11.396;2022-12-07T04:00:21;9.65;;;5.35;;
73296;SDS011;61524;50.938;11.396;2022-12-07T04:02:47;7.75;;;3.97;;
73296;SDS011;61524;50.938;11.396;2022-12-07T04:05:17;9.43;;;3.97;;
73296;SDS011;61524;50.938;11.396;2022-12-07T04:07:42;7.78;;;3.53;;
73296;SDS011;61524;50.938;11.396;2022-12-07T04:10:08;7.40;;;3.55;;
73296;SDS011;61524;50.938;11.396;2022-12-07T04:12:34;6.47;;;3.55;;
73296;SDS011;61524;50.938;11.396;2022-12-07T04:14:59;10.38;;;4.20;;
73296;SDS011;61524;50.938;11.396;2022-12-07T04:17:25;13.30;;;6.07;;
73296;SDS011;61524;50.938;11.396;2022-12-07T04:19:50;8.45;;;4.47;;
73296;SDS011;61524;50.938;11.396;2022-12-07T04:22:16;9.43;;;5.18;;
73296;SDS011;61524;50.938;11.396;2022-12-07T04:24:41;10.02;;;4.10;;
73296;SDS011;61524;50.938;11.396;2022-12-07T04:27:07;6.35;;;3.58;;
73296;SDS011;61524;50.938;11.396;2022-12-07T04:29:32;9.05;;;4.25;;
73296;SDS011;61524;50.938;11.396;2022-12-07T04:31:58;8.63;;;4.05;;
73296;SDS011;61524;50.938;11.396;2022-12-07T04:34:23;11.40;;;5.47;;
73296;SDS011;61524;50.938;11.396;2022-12-07T04:36:48;10.30;;;3.90;;
73296;SDS011;61524;50.938;11.396;2022-12-07T04:39:21;7.88;;;4.53;;
73296;SDS011;61524;50.938;11.396;2022-12-07T04:41:52;7.72;;;3.85;;
73296;SDS011;61524;50.938;11.396;2022-12-07T04:44:18;10.15;;;4.80;;
73296;SDS011;61524;50.938;11.396;2022-12-07T04:46:44;9.43;;;3.95;;
73296;SDS011;61524;50.938;11.396;2022-12-07T04:49:10;7.40;;;3.92;;
73296;SDS011;61524;50.938;11.396;2022-12-07T04:51:37;8.13;;;3.80;;
73296;SDS011;61524;50.938;11.396;2022-12-07T04:54:02;11.05;;;4.93;;
73296;SDS011;61524;50.938;11.396;2022-12-07T04:56:28;8.65;;;3.83;;
73296;SDS011;61524;50.938;11.396;2022-12-07T04:58:54;10.98;;;4.75;;
73296;SDS011;61524;50.938;11.396;2022-12-07T05:01:20;8.15;;;4.07;;
73296;SDS011;61524;50.938;11.396;2022-12-07T05:03:46;10.77;;;4.65;;
73296;SDS011;61524;50.938;11.396;2022-12-07T05:06:12;10.02;;;5.25;;
73296;SDS011;61524;50.938;11.396;2022-12-07T05:08:37;10.00;;;4.65;;
73296;SDS011;61524;50.938;11.396;2022-12-07T05:11:04;7.63;;;3.88;;
73296;SDS011;61524;50.938;11.396;2022-12-07T05:13:31;9.00;;;4.38;;
73296;SDS011;61524;50.938;11.396;2022-12-07T05:15:57;10.82;;;4.97;;
73296;SDS011;61524;50.938;11.396;2022-12-07T05:18:23;9.98;;;4.70;;
73296;SDS011;61524;50.938;11.396;2022-12-07T05:20:48;11.82;;;5.53;;
73296;SDS011;61524;50.938;11.396;2022-12-07T05:23:15;9.25;;;5.20;;
73296;SDS011;61524;50.938;11.396;2022-12-07T05:25:41;8.07;;;4.70;;
73296;SDS011;61524;50.938;11.396;2022-12-07T05:28:07;10.25;;;5.13;;
73296;SDS011;61524;50.938;11.396;2022-12-07T05:30:32;10.85;;;4.65;;
73296;SDS011;61524;50.938;11.396;2022-12-07T05:32:58;10.73;;;5.47;;
73296;SDS011;61524;50.938;11.396;2022-12-07T05:35:23;9.88;;;5.38;;
73296;SDS011;61524;50.938;11.396;2022-12-07T05:37:49;12.45;;;5.65;;
73296;SDS011;61524;50.938;11.396;2022-12-07T05:40:14;11.77;;;5.13;;
73296;SDS011;61524;50.938;11.396;2022-12-07T05:42:40;10.85;;;5.25;;
73296;SDS011;61524;50.938;11.396;2022-12-07T05:45:06;14.18;;;6.20;;
73296;SDS011;61524;50.938;11.396;2022-12-07T05:47:33;12.15;;;5.25;;
73296;SDS011;61524;50.938;11.396;2022-12-07T05:49:58;10.73;;;4.85;;
73296;SDS011;61524;50.938;11.396;2022-12-07T05:52:24;11.13;;;5.75;;
73296;SDS011;61524;50.938;11.396;2022-12-07T05:54:49;10.55;;;5.80;;
73296;SDS011;61524;50.938;11.396;2022-12-07T05:57:15;11.88;;;6.13;;
73296;SDS011;61524;50.938;11.396;2022-12-07T05:59:40;11.10;;;6.13;;
73296;SDS011;61524;50.938;11.396;2022-12-07T06:02:07;12.13;;;6.05;;
73296;SDS011;61524;50.938;11.396;2022-12-07T06:04:35;13.65;;;7.07;;
73296;SDS011;61524;50.938;11.396;2022-12-07T06:07:03;15.88;;;7.50;;
73296;SDS011;61524;50.938;11.396;2022-12-07T06:09:29;16.58;;;7.63;;
73296;SDS011;61524;50.938;11.396;2022-12-07T06:11:55;13.10;;;7.40;;
73296;SDS011;61524;50.938;11.396;2022-12-07T06:14:40;14.57;;;5.95;;
73296;SDS011;61524;50.938;11.396;2022-12-07T06:17:06;16.10;;;7.20;;
73296;SDS011;61524;50.938;11.396;2022-12-07T06:19:32;12.90;;;7.40;;
73296;SDS011;61524;50.938;11.396;2022-12-07T06:21:57;12.95;;;7.00;;
73296;SDS011;61524;50.938;11.396;2022-12-07T06:24:23;13.48;;;6.13;;
73296;SDS011;61524;50.938;11.396;2022-12-07T06:26:49;13.13;;;7.50;;
73296;SDS011;61524;50.938;11.396;2022-12-07T06:29:17;14.15;;;8.38;;
73296;SDS011;61524;50.938;11.396;2022-12-07T06:31:43;13.73;;;7.70;;
73296;SDS011;61524;50.938;11.396;2022-12-07T06:34:11;16.90;;;7.70;;
73296;SDS011;61524;50.938;11.396;2022-12-07T06:36:38;14.35;;;7.45;;
73296;SDS011;61524;50.938;11.396;2022-12-07T06:39:04;14.38;;;7.47;;
73296;SDS011;61524;50.938;11.396;2022-12-07T06:41:30;17.08;;;7.53;;
73296;SDS011;61524;50.938;11.396;2022-12-07T06:43:56;12.05;;;6.25;;
73296;SDS011;61524;50.938;11.396;2022-12-07T06:46:21;13.25;;;6.95;;
73296;SDS011;61524;50.938;11.396;2022-12-07T06:48:47;15.43;;;7.57;;
73296;SDS011;61524;50.938;11.396;2022-12-07T06:51:13;13.60;;;7.70;;
73296;SDS011;61524;50.938;11.396;2022-12-07T06:53:38;14.93;;;7.68;;
73296;SDS011;61524;50.938;11.396;2022-12-07T06:56:04;15.90;;;7.60;;
73296;SDS011;61524;50.938;11.396;2022-12-07T06:58:30;16.63;;;7.70;;
73296;SDS011;61524;50.938;11.396;2022-12-07T07:00:55;14.80;;;7.40;;
73296;SDS011;61524;50.938;11.396;2022-12-07T07:03:21;11.30;;;6.03;;
73296;SDS011;61524;50.938;11.396;2022-12-07T07:05:47;15.13;;;6.80;;
73296;SDS011;61524;50.938;11.396;2022-12-07T07:08:12;14.38;;;6.93;;
73296;SDS011;61524;50.938;11.396;2022-12-07T07:10:38;11.18;;;6.82;;
73296;SDS011;61524;50.938;11.396;2022-12-07T07:13:04;12.80;;;6.78;;
73296;SDS011;61524;50.938;11.396;2022-12-07T07:15:31;14.00;;;6.03;;
73296;SDS011;61524;50.938;11.396;2022-12-07T07:17:57;12.75;;;6.03;;
73296;SDS011;61524;50.938;11.396;2022-12-07T07:20:23;11.38;;;5.57;;
73296;SDS011;61524;50.938;11.396;2022-12-07T07:22:48;13.85;;;6.25;;
73296;SDS011;61524;50.938;11.396;2022-12-07T07:25:14;11.32;;;6.22;;
73296;SDS011;61524;50.938;11.396;2022-12-07T07:27:40;14.10;;;7.03;;
73296;SDS011;61524;50.938;11.396;2022-12-07T07:30:06;10.57;;;6.00;;
73296;SDS011;61524;50.938;11.396;2022-12-07T07:32:32;12.93;;;6.40;;
73296;SDS011;61524;50.938;11.396;2022-12-07T07:34:57;11.68;;;6.20;;
73296;SDS011;61524;50.938;11.396;2022-12-07T07:37:23;11.52;;;5.57;;
73296;SDS011;61524;50.938;11.396;2022-12-07T07:39:48;13.68;;;7.35;;
73296;SDS011;61524;50.938;11.396;2022-12-07T07:42:14;14.43;;;6.50;;
73296;SDS011;61524;50.938;11.396;2022-12-07T07:44:40;13.18;;;6.80;;
73296;SDS011;61524;50.938;11.396;2022-12-07T07:47:05;16.52;;;7.50;;
73296;SDS011;61524;50.938;11.396;2022-12-07T07:49:31;13.20;;;7.30;;
73296;SDS011;61524;50.938;11.396;2022-12-07T07:51:56;14.27;;;7.82;;
73296;SDS011;61524;50.938;11.396;2022-12-07T07:54:22;15.63;;;7.75;;
73296;SDS011;61524;50.938;11.396;2022-12-07T07:56:47;13.50;;;8.00;;
73296;SDS011;61524;50.938;11.396;2022-12-07T07:59:13;13.18;;;7.85;;
73296;SDS011;61524;50.938;11.396;2022-12-07T08:01:40;15.05;;;7.65;;
73296;SDS011;61524;50.938;11.396;2022-12-07T08:04:05;16.85;;;7.57;;
73296;SDS011;61524;50.938;11.396;2022-12-07T08:06:30;15.68;;;6.90;;
73296;SDS011;61524;50.938;11.396;2022-12-07T08:08:56;13.85;;;7.75;;
73296;SDS011;61524;50.938;11.396;2022-12-07T08:11:23;16.35;;;7.20;;
73296;SDS011;61524;50.938;11.396;2022-12-07T08:13:48;12.73;;;7.00;;
73296;SDS011;61524;50.938;11.396;2022-12-07T08:16:14;13.23;;;6.93;;
73296;SDS011;61524;50.938;11.396;2022-12-07T08:18:40;15.52;;;7.35;;
73296;SDS011;61524;50.938;11.396;2022-12-07T08:21:07;13.32;;;6.97;;
73296;SDS011;61524;50.938;11.396;2022-12-07T08:23:35;11.73;;;5.57;;
73296;SDS011;61524;50.938;11.396;2022-12-07T08:26:01;11.63;;;6.57;;
73296;SDS011;61524;50.938;11.396;2022-12-07T08:28:28;13.57;;;5.95;;
73296;SDS011;61524;50.938;11.396;2022-12-07T08:31:01;12.30;;;6.40;;
73296;SDS011;61524;50.938;11.396;2022-12-07T08:33:28;14.25;;;8.32;;
73296;SDS011;61524;50.938;11.396;2022-12-07T08:35:54;14.52;;;6.78;;
73296;SDS011;61524;50.938;11.396;2022-12-07T08:38:19;10.23;;;5.07;;
73296;SDS011;61524;50.938;11.396;2022-12-07T08:40:45;11.85;;;6.40;;
73296;SDS011;61524;50.938;11.396;2022-12-07T08:43:18;11.68;;;6.15;;
73296;SDS011;61524;50.938;11.396;2022-12-07T08:45:43;12.80;;;6.68;;
73296;SDS011;61524;50.938;11.396;2022-12-07T08:48:09;12.32;;;5.55;;
73296;SDS011;61524;50.938;11.396;2022-12-07T08:50:38;14.13;;;6.47;;
73296;SDS011;61524;50.938;11.396;2022-12-07T08:53:04;12.07;;;5.00;;
73296;SDS011;61524;50.938;11.396;2022-12-07T08:55:31;8.50;;;3.83;;
73296;SDS011;61524;50.938;11.396;2022-12-07T08:57:58;9.23;;;4.63;;
73296;SDS011;61524;50.938;11.396;2022-12-07T09:00:24;12.13;;;4.68;;
73296;SDS011;61524;50.938;11.396;2022-12-07T09:02:51;9.25;;;4.22;;
73296;SDS011;61524;50.938;11.396;2022-12-07T09:05:16;9.35;;;4.90;;
73296;SDS011;61524;50.938;11.396;2022-12-07T09:07:43;10.75;;;6.10;;
73296;SDS011;61524;50.938;11.396;2022-12-07T09:10:11;13.18;;;6.22;;
73296;SDS011;61524;50.938;11.396;2022-12-07T09:12:37;8.98;;;5.40;;
73296;SDS011;61524;50.938;11.396;2022-12-07T09:15:02;11.02;;;5.70;;
73296;SDS011;61524;50.938;11.396;2022-12-07T09:17:28;13.60;;;5.10;;
73296;SDS011;61524;50.938;11.396;2022-12-07T09:19:57;15.13;;;8.45;;
73296;SDS011;61524;50.938;11.396;2022-12-07T09:22:22;10.77;;;6.38;;
73296;SDS011;61524;50.938;11.396;2022-12-07T09:24:48;9.88;;;5.45;;
73296;SDS011;61524;50.938;11.396;2022-12-07T09:27:13;11.13;;;4.60;;
73296;SDS011;61524;50.938;11.396;2022-12-07T09:29:39;11.98;;;5.05;;
73296;SDS011;61524;50.938;11.396;2022-12-07T09:32:04;9.15;;;4.50;;
73296;SDS011;61524;50.938;11.396;2022-12-07T09:34:30;9.57;;;4.38;;
73296;SDS011;61524;50.938;11.396;2022-12-07T09:36:57;9.02;;;4.95;;
73296;SDS011;61524;50.938;11.396;2022-12-07T09:39:22;8.23;;;4.10;;
73296;SDS011;61524;50.938;11.396;2022-12-07T09:41:48;7.63;;;3.35;;
73296;SDS011;61524;50.938;11.396;2022-12-07T09:44:32;6.45;;;4.07;;
73296;SDS011;61524;50.938;11.396;2022-12-07T09:46:58;9.13;;;3.35;;
73296;SDS011;61524;50.938;11.396;2022-12-07T09:49:25;6.57;;;3.45;;
73296;SDS011;61524;50.938;11.396;2022-12-07T09:54:49;6.13;;;3.20;;
73296;SDS011;61524;50.938;11.396;2022-12-07T09:57:15;6.97;;;3.05;;
73296;SDS011;61524;50.938;11.396;2022-12-07T09:59:41;10.25;;;3.00;;
73296;SDS011;61524;50.938;11.396;2022-12-07T10:08:26;4.70;;;2.30;;
73296;SDS011;61524;50.938;11.396;2022-12-07T10:10:53;5.03;;;2.22;;
73296;SDS011;61524;50.938;11.396;2022-12-07T10:13:21;4.97;;;2.78;;
73296;SDS011;61524;50.938;11.396;2022-12-07T10:15:58;6.55;;;3.17;;
73296;SDS011;61524;50.938;11.396;2022-12-07T10:23:30;7.22;;;2.85;;
73296;SDS011;61524;50.938;11.396;2022-12-07T10:25:56;5.07;;;2.90;;
73296;SDS011;61524;50.938;11.396;2022-12-07T10:28:21;5.18;;;2.70;;
73296;SDS011;61524;50.938;11.396;2022-12-07T10:31:03;6.35;;;3.20;;
73296;SDS011;61524;50.938;11.396;2022-12-07T10:33:55;6.55;;;2.97;;
73296;SDS011;61524;50.938;11.396;2022-12-07T10:38:58;5.75;;;3.03;;
73296;SDS011;61524;50.938;11.396;2022-12-07T10:41:26;6.72;;;2.47;;
73296;SDS011;61524;50.938;11.396;2022-12-07T10:43:53;7.35;;;2.97;;
73296;SDS011;61524;50.938;11.396;2022-12-07T10:46:34;8.82;;;2.83;;
73296;SDS011;61524;50.938;11.396;2022-12-07T10:54:40;8.55;;;2.78;;
73296;SDS011;61524;50.938;11.396;2022-12-07T11:00:25;5.57;;;2.88;;
73296;SDS011;61524;50.938;11.396;2022-12-07T11:03:06;6.15;;;3.15;;
73296;SDS011;61524;50.938;11.396;2022-12-07T11:05:56;7.03;;;2.75;;
73296;SDS011;61524;50.938;11.396;2022-12-07T11:11:45;6.35;;;2.83;;
73296;SDS011;61524;50.938;11.396;2022-12-07T11:17:03;4.22;;;1.90;;
73296;SDS011;61524;50.938;11.396;2022-12-07T11:27:24;4.45;;;1.98;;
73296;SDS011;61524;50.938;11.396;2022-12-07T11:32:49;4.70;;;2.20;;
73296;SDS011;61524;50.938;11.396;2022-12-07T11:40:41;4.32;;;1.95;;
73296;SDS011;61524;50.938;11.396;2022-12-07T11:43:15;5.28;;;2.60;;
73296;SDS011;61524;50.938;11.396;2022-12-07T11:45:47;4.32;;;1.92;;
73296;SDS011;61524;50.938;11.396;2022-12-07T11:48:24;6.72;;;2.00;;
73296;SDS011;61524;50.938;11.396;2022-12-07T11:50:59;8.63;;;2.67;;
73296;SDS011;61524;50.938;11.396;2022-12-07T11:53:27;3.28;;;1.70;;
73296;SDS011;61524;50.938;11.396;2022-12-07T11:56:02;4.18;;;1.52;;
73296;SDS011;61524;50.938;11.396;2022-12-07T12:01:56;3.45;;;1.85;;
73296;SDS011;61524;50.938;11.396;2022-12-07T12:04:34;5.78;;;2.22;;
73296;SDS011;61524;50.938;11.396;2022-12-07T12:07:14;6.70;;;2.30;;
73296;SDS011;61524;50.938;11.396;2022-12-07T12:09:49;3.33;;;2.03;;
73296;SDS011;61524;50.938;11.396;2022-12-07T12:17:59;3.33;;;1.38;;
73296;SDS011;61524;50.938;11.396;2022-12-07T12:21:12;4.82;;;1.70;;
73296;SDS011;61524;50.938;11.396;2022-12-07T12:23:41;3.88;;;1.85;;
73296;SDS011;61524;50.938;11.396;2022-12-07T12:26:13;7.47;;;2.17;;
73296;SDS011;61524;50.938;11.396;2022-12-07T12:33:56;3.67;;;1.80;;
73296;SDS011;61524;50.938;11.396;2022-12-07T12:36:24;8.18;;;2.55;;
73296;SDS011;61524;50.938;11.396;2022-12-07T12:51:46;6.20;;;2.75;;
73296;SDS011;61524;50.938;11.396;2022-12-07T12:59:32;7.07;;;3.30;;
73296;SDS011;61524;50.938;11.396;2022-12-07T13:04:58;10.18;;;3.53;;
73296;SDS011;61524;50.938;11.396;2022-12-07T13:13:03;5.00;;;1.92;;
73296;SDS011;61524;50.938;11.396;2022-12-07T13:15:53;6.40;;;2.58;;
73296;SDS011;61524;50.938;11.396;2022-12-07T13:23:27;10.50;;;4.40;;
73296;SDS011;61524;50.938;11.396;2022-12-07T13:28:25;7.32;;;2.53;;
73296;SDS011;61524;50.938;11.396;2022-12-07T13:33:35;5.10;;;2.38;;
73296;SDS011;61524;50.938;11.396;2022-12-07T13:36:01;5.40;;;1.83;;
73296;SDS011;61524;50.938;11.396;2022-12-07T13:41:14;6.13;;;1.83;;
73296;SDS011;61524;50.938;11.396;2022-12-07T13:43:59;8.18;;;2.60;;
73296;SDS011;61524;50.938;11.396;2022-12-07T13:49:28;6.35;;;3.10;;
73296;SDS011;61524;50.938;11.396;2022-12-07T13:52:07;8.38;;;3.85;;
73296;SDS011;61524;50.938;11.396;2022-12-07T13:54:47;3.90;;;2.00;;
73296;SDS011;61524;50.938;11.396;2022-12-07T13:57:19;8.65;;;3.50;;
73296;SDS011;61524;50.938;11.396;2022-12-07T13:59:45;5.40;;;2.75;;
73296;SDS011;61524;50.938;11.396;2022-12-07T14:02:18;9.13;;;2.90;;
73296;SDS011;61524;50.938;11.396;2022-12-07T14:04:48;3.88;;;1.85;;
73296;SDS011;61524;50.938;11.396;2022-12-07T14:07:23;4.28;;;1.25;;
73296;SDS011;61524;50.938;11.396;2022-12-07T14:10:00;2.92;;;1.35;;
73296;SDS011;61524;50.938;11.396;2022-12-07T14:12:29;2.90;;;1.52;;
73296;SDS011;61524;50.938;11.396;2022-12-07T14:14:56;6.47;;;1.70;;
73296;SDS011;61524;50.938;11.396;2022-12-07T14:17:23;3.80;;;2.08;;
73296;SDS011;61524;50.938;11.396;2022-12-07T14:19:51;4.20;;;1.90;;
73296;SDS011;61524;50.938;11.396;2022-12-07T14:25:21;6.18;;;1.98;;
73296;SDS011;61524;50.938;11.396;2022-12-07T14:30:24;4.47;;;1.55;;
73296;SDS011;61524;50.938;11.396;2022-12-07T14:32:58;4.70;;;1.63;;
73296;SDS011;61524;50.938;11.396;2022-12-07T14:35:26;2.38;;;1.70;;
73296;SDS011;61524;50.938;11.396;2022-12-07T14:37:52;4.68;;;1.90;;
73296;SDS011;61524;50.938;11.396;2022-12-07T14:42:46;4.60;;;2.03;;
73296;SDS011;61524;50.938;11.396;2022-12-07T14:45:18;2.60;;;1.40;;
73296;SDS011;61524;50.938;11.396;2022-12-07T14:47:45;3.05;;;1.33;;
73296;SDS011;61524;50.938;11.396;2022-12-07T14:50:12;3.60;;;1.50;;
73296;SDS011;61524;50.938;11.396;2022-12-07T14:52:39;2.13;;;0.98;;
73296;SDS011;61524;50.938;11.396;2022-12-07T14:55:12;3.28;;;1.60;;
73296;SDS011;61524;50.938;11.396;2022-12-07T14:57:42;2.80;;;1.50;;
73296;SDS011;61524;50.938;11.396;2022-12-07T15:00:09;3.55;;;1.65;;
73296;SDS011;61524;50.938;11.396;2022-12-07T15:02:39;4.47;;;1.73;;
73296;SDS011;61524;50.938;11.396;2022-12-07T15:05:04;6.57;;;1.75;;
73296;SDS011;61524;50.938;11.396;2022-12-07T15:07:30;5.00;;;2.00;;
73296;SDS011;61524;50.938;11.396;2022-12-07T15:09:55;3.65;;;1.95;;
73296;SDS011;61524;50.938;11.396;2022-12-07T15:12:21;4.72;;;1.90;;
73296;SDS011;61524;50.938;11.396;2022-12-07T15:14:46;4.88;;;2.15;;
73296;SDS011;61524;50.938;11.396;2022-12-07T15:17:11;3.45;;;1.95;;
73296;SDS011;61524;50.938;11.396;2022-12-07T15:19:38;6.22;;;2.20;;
73296;SDS011;61524;50.938;11.396;2022-12-07T15:22:03;4.63;;;1.77;;
73296;SDS011;61524;50.938;11.396;2022-12-07T15:24:29;4.85;;;1.88;;
73296;SDS011;61524;50.938;11.396;2022-12-07T15:26:54;7.10;;;1.70;;
73296;SDS011;61524;50.938;11.396;2022-12-07T15:29:20;4.70;;;1.95;;
73296;SDS011;61524;50.938;11.396;2022-12-07T15:31:47;4.55;;;1.67;;
73296;SDS011;61524;50.938;11.396;2022-12-07T15:34:14;4.07;;;1.80;;
73296;SDS011;61524;50.938;11.396;2022-12-07T15:36:39;3.70;;;1.85;;
73296;SDS011;61524;50.938;11.396;2022-12-07T15:39:04;2.50;;;1.40;;
73296;SDS011;61524;50.938;11.396;2022-12-07T15:41:30;3.65;;;2.10;;
73296;SDS011;61524;50.938;11.396;2022-12-07T15:43:55;3.80;;;1.80;;
73296;SDS011;61524;50.938;11.396;2022-12-07T15:46:40;3.63;;;1.65;;
73296;SDS011;61524;50.938;11.396;2022-12-07T15:49:08;8.38;;;2.35;;
73296;SDS011;61524;50.938;11.396;2022-12-07T15:51:39;5.13;;;2.63;;
73296;SDS011;61524;50.938;11.396;2022-12-07T15:54:05;5.50;;;2.83;;
73296;SDS011;61524;50.938;11.396;2022-12-07T15:56:31;4.75;;;2.00;;
73296;SDS011;61524;50.938;11.396;2022-12-07T15:58:56;5.00;;;2.38;;
73296;SDS011;61524;50.938;11.396;2022-12-07T16:01:22;7.30;;;2.38;;
73296;SDS011;61524;50.938;11.396;2022-12-07T16:03:47;4.50;;;2.00;;
73296;SDS011;61524;50.938;11.396;2022-12-07T16:06:15;5.07;;;2.40;;
73296;SDS011;61524;50.938;11.396;2022-12-07T16:08:43;5.25;;;2.30;;
73296;SDS011;61524;50.938;11.396;2022-12-07T16:11:09;6.60;;;2.67;;
73296;SDS011;61524;50.938;11.396;2022-12-07T16:13:35;4.97;;;2.42;;
73296;SDS011;61524;50.938;11.396;2022-12-07T16:16:04;7.45;;;3.33;;
73296;SDS011;61524;50.938;11.396;2022-12-07T16:18:35;7.03;;;3.17;;
73296;SDS011;61524;50.938;11.396;2022-12-07T16:21:00;6.22;;;3.08;;
73296;SDS011;61524;50.938;11.396;2022-12-07T16:23:26;5.97;;;2.53;;
73296;SDS011;61524;50.938;11.396;2022-12-07T16:25:52;7.40;;;2.38;;
73296;SDS011;61524;50.938;11.396;2022-12-07T16:28:18;7.57;;;3.45;;
73296;SDS011;61524;50.938;11.396;2022-12-07T16:30:43;6.72;;;3.08;;
73296;SDS011;61524;50.938;11.396;2022-12-07T16:33:09;7.90;;;3.25;;
73296;SDS011;61524;50.938;11.396;2022-12-07T16:35:37;4.85;;;2.40;;
73296;SDS011;61524;50.938;11.396;2022-12-07T16:38:05;6.63;;;2.78;;
73296;SDS011;61524;50.938;11.396;2022-12-07T16:40:32;6.47;;;2.30;;
73296;SDS011;61524;50.938;11.396;2022-12-07T16:42:57;11.18;;;2.47;;
73296;SDS011;61524;50.938;11.396;2022-12-07T16:45:22;4.10;;;2.05;;
73296;SDS011;61524;50.938;11.396;2022-12-07T16:47:48;6.70;;;2.63;;
73296;SDS011;61524;50.938;11.396;2022-12-07T16:50:13;4.70;;;1.92;;
73296;SDS011;61524;50.938;11.396;2022-12-07T16:52:39;4.68;;;1.85;;
73296;SDS011;61524;50.938;11.396;2022-12-07T16:55:04;4.75;;;2.05;;
73296;SDS011;61524;50.938;11.396;2022-12-07T16:57:30;4.00;;;1.60;;
73296;SDS011;61524;50.938;11.396;2022-12-07T16:59:56;3.88;;;1.90;;
73296;SDS011;61524;50.938;11.396;2022-12-07T17:02:22;3.80;;;1.88;;
73296;SDS011;61524;50.938;11.396;2022-12-07T17:04:47;4.40;;;2.42;;
73296;SDS011;61524;50.938;11.396;2022-12-07T17:07:13;5.53;;;2.42;;
73296;SDS011;61524;50.938;11.396;2022-12-07T17:09:39;4.03;;;2.20;;
73296;SDS011;61524;50.938;11.396;2022-12-07T17:12:04;5.85;;;2.60;;
73296;SDS011;61524;50.938;11.396;2022-12-07T17:14:31;4.53;;;2.25;;